Noshiro Maru — JD4183 — position and weather

sailwx.info

Track history (hours):
 
Tides and Currents Weather Stations Pressure Air Temp Water Temp Dewpoint Dewpoint Depression Visibility Wind Speed Wind Dir Waves Ship Positions

Noshiro Maru

Last reported at 2017-Dec-16 15:00 UTC. Time now 2017-Dec-16 15:03 UTC.
Position N 35°17' E 139°41'.

Length 38 m; draft 3 m.

Type: Tug. MMSI: 431009622.

Date/timePositionNaut miles runAvg speedWind from/ knotsBaromVisibWave heightAir tempDewpointWater temp
2017-Dec-16 15:00N 35°17' E 139°41'0 0.0
2017-Dec-16 14:30N 35°17' E 139°41'0 0.0
2017-Dec-16 14:00N 35°17' E 139°41'1 3.0
2017-Dec-16 13:31N 35°18' E 139°42'2 3.1
2017-Dec-16 13:01N 35°17' E 139°41'0 0.0
2017-Dec-16 12:31N 35°17' E 139°41'0 0.0
2017-Dec-16 12:00N 35°17' E 139°41'0 0.0
2017-Dec-16 11:30N 35°17' E 139°41'0 0.0
2017-Dec-16 11:00N 35°17' E 139°41'0 0.0
2017-Dec-16 10:30N 35°17' E 139°41'0 0.0
2017-Dec-16 10:00N 35°17' E 139°41'0 0.0
2017-Dec-16 09:31N 35°17' E 139°41'2 3.4
2017-Dec-16 09:00N 35°18' E 139°42'510.4
2017-Dec-16 08:31N 35°23' E 139°39'0 0.0
2017-Dec-16 08:01N 35°23' E 139°39'0 0.0
2017-Dec-16 07:31N 35°23' E 139°39'0 0.0
2017-Dec-16 07:00N 35°23' E 139°39'0 0.0
2017-Dec-16 06:31N 35°23' E 139°39'1 2.2
2017-Dec-16 06:00N 35°24' E 139°39'3 5.3
2017-Dec-16 05:31N 35°23' E 139°42'0 0.3
2017-Dec-16 05:00N 35°23' E 139°42'2 4.2
2017-Dec-16 04:30N 35°21' E 139°43'3 6.3
2017-Dec-16 04:00N 35°19' E 139°44'3 5.7
2017-Dec-16 03:30N 35°16' E 139°46'3 6.4
2017-Dec-16 03:00N 35°13' E 139°47'2 4.5
2017-Dec-16 02:30N 35°11' E 139°47'1 1.5
2017-Dec-16 02:01N 35°10' E 139°47'4 8.4
2017-Dec-16 01:31N 35°13' E 139°43'0 1.0
2017-Dec-16 01:00N 35°13' E 139°43'0 0.0
2017-Dec-16 00:31N 35°13' E 139°43'0 0.0
2017-Dec-16 00:01N 35°13' E 139°43'0 0.0
2017-Dec-15 23:31N 35°13' E 139°43'0 0.0
2017-Dec-15 23:00N 35°13' E 139°43'0 0.0
2017-Dec-15 22:30N 35°13' E 139°43'0 0.0
2017-Dec-15 22:00N 35°13' E 139°43'0 0.0
2017-Dec-15 21:30N 35°13' E 139°43'0 0.0
2017-Dec-15 21:00N 35°13' E 139°43'0 0.0
2017-Dec-15 20:30N 35°13' E 139°43'0 0.0
2017-Dec-15 20:01N 35°13' E 139°43'0 0.0
2017-Dec-15 19:31N 35°13' E 139°43'0 0.0
2017-Dec-15 19:01N 35°13' E 139°43'0 0.0
2017-Dec-15 18:30N 35°13' E 139°43'0 0.0
2017-Dec-15 18:00N 35°13' E 139°43'0 0.0
2017-Dec-15 17:30N 35°13' E 139°43'0 0.0
2017-Dec-15 17:01N 35°13' E 139°43'0 0.0
2017-Dec-15 16:31N 35°13' E 139°43'0 0.0
2017-Dec-15 16:00N 35°13' E 139°43'0 0.0
2017-Dec-15 15:31N 35°13' E 139°43'0 0.0
2017-Dec-15 15:01N 35°13' E 139°43'0 0.0
2017-Dec-15 14:30N 35°13' E 139°43'0 0.0
2017-Dec-15 14:01N 35°13' E 139°43'0 0.0
2017-Dec-15 13:31N 35°13' E 139°43'0 0.0
2017-Dec-15 13:01N 35°13' E 139°43'0 0.0
2017-Dec-15 12:30N 35°13' E 139°43'0 0.0
2017-Dec-15 12:01N 35°13' E 139°43'0 0.0
2017-Dec-15 11:29N 35°13' E 139°43'0 0.0
2017-Dec-15 11:01N 35°13' E 139°43'0 0.0
2017-Dec-15 10:30N 35°13' E 139°43'0 0.0
2017-Dec-15 10:00N 35°13' E 139°43'0 0.0
2017-Dec-15 09:30N 35°13' E 139°43'0 0.0
2017-Dec-15 09:00N 35°13' E 139°43'0 0.0
2017-Dec-15 08:29N 35°13' E 139°43'0 0.0
2017-Dec-15 08:00N 35°13' E 139°43'0 0.0
2017-Dec-15 07:30N 35°13' E 139°43'0 0.0
2017-Dec-15 07:00N 35°13' E 139°43'0 0.0
2017-Dec-15 06:30N 35°13' E 139°43'0 0.0
2017-Dec-15 06:00N 35°13' E 139°43'0 0.0
2017-Dec-15 05:30N 35°13' E 139°43'0 0.0
2017-Dec-15 05:00N 35°13' E 139°43'0 0.0
2017-Dec-15 04:30N 35°13' E 139°43'0 0.0
2017-Dec-15 03:38N 35°13' E 139°43'0 0.1
2017-Dec-15 02:30N 35°13' E 139°43'11 7.1
2017-Dec-15 01:00N 35°24' E 139°43'4 7.7
2017-Dec-15 00:31N 35°28' E 139°44'7 1.2
2017-Dec-14 18:30N 35°21' E 139°42'612.6
2017-Dec-14 18:00N 35°15' E 139°45'3 5.8
2017-Dec-14 17:30N 35°13' E 139°43'0 0.0
2017-Dec-14 17:00N 35°13' E 139°43'0 0.0
2017-Dec-14 16:30N 35°13' E 139°43'0 0.0
2017-Dec-14 16:00N 35°13' E 139°43'0 0.0
2017-Dec-14 15:00N 35°13' E 139°43'0 0.0
2017-Dec-14 14:30N 35°13' E 139°43'0 0.0
2017-Dec-14 14:00N 35°13' E 139°43'0 0.0
2017-Dec-14 13:30N 35°13' E 139°43'0 0.5
2017-Dec-14 13:00N 35°13' E 139°43'3 5.4
2017-Dec-14 12:30N 35°14' E 139°46'612.5
2017-Dec-14 12:01N 35°20' E 139°43'4 8.7
2017-Dec-14 11:31N 35°24' E 139°44'0 0.7
2017-Dec-14 11:00N 35°24' E 139°44'1 2.6
2017-Dec-14 10:30N 35°23' E 139°46'611.5
2017-Dec-14 10:01N 35°18' E 139°45'611.8
2017-Dec-14 09:30N 35°12' E 139°47'1 2.0
2017-Dec-14 09:00N 35°11' E 139°47'4 7.4
2017-Dec-14 08:30N 35°13' E 139°43'0 0.0
2017-Dec-14 08:00N 35°13' E 139°43'0 0.0
2017-Dec-14 07:31N 35°13' E 139°43'0 0.0
2017-Dec-14 07:00N 35°13' E 139°43'0 0.0
2017-Dec-14 06:30N 35°13' E 139°43'3 5.5
2017-Dec-14 06:00N 35°13' E 139°46'612.3
2017-Dec-14 05:30N 35°19' E 139°44'612.4
2017-Dec-14 05:01N 35°25' E 139°44'5 9.2
2017-Dec-14 04:30N 35°22' E 139°48'1 2.0
2017-Dec-14 04:00N 35°21' E 139°49'0 0.7
2017-Dec-14 03:30N 35°21' E 139°49'4 7.5
2017-Dec-14 03:00N 35°25' E 139°51'510.1
2017-Dec-14 02:30N 35°29' E 139°54'3 6.0
2017-Dec-14 01:57N 35°27' E 139°50'511.5
2017-Dec-14 01:30N 35°24' E 139°46'611.7
2017-Dec-14 01:00N 35°18' E 139°45'611.8
2017-Dec-14 00:30N 35°12' E 139°47'2 4.4
2017-Dec-14 00:00N 35°10' E 139°47'5 9.3
2017-Dec-13 23:30N 35°13' E 139°43'0 0.3
2017-Dec-13 22:59N 35°13' E 139°43'0 0.0
2017-Dec-13 22:30N 35°13' E 139°43'0 0.0
2017-Dec-13 21:57N 35°13' E 139°43'0 0.0
2017-Dec-13 21:30N 35°13' E 139°43'0 0.0
2017-Dec-13 20:59N 35°13' E 139°43'0 0.0
2017-Dec-13 20:30N 35°13' E 139°43'0 0.0
2017-Dec-13 20:00N 35°13' E 139°43'0 0.0
2017-Dec-13 19:30N 35°13' E 139°43'0 0.0
2017-Dec-13 19:00N 35°13' E 139°43'0 0.0
2017-Dec-13 18:29N 35°13' E 139°43'0 0.0
2017-Dec-13 18:00N 35°13' E 139°43'0 0.0
2017-Dec-13 17:30N 35°13' E 139°43'0 0.0
2017-Dec-13 17:00N 35°13' E 139°43'0 0.0
2017-Dec-13 16:30N 35°13' E 139°43'0 0.0
2017-Dec-13 16:00N 35°13' E 139°43'0 0.0
2017-Dec-13 15:30N 35°13' E 139°43'0 0.0
2017-Dec-13 15:00N 35°13' E 139°43'0 0.0
2017-Dec-13 14:30N 35°13' E 139°43'0 0.0
2017-Dec-13 14:00N 35°13' E 139°43'0 0.0
2017-Dec-13 13:30N 35°13' E 139°43'0 0.0
2017-Dec-13 12:57N 35°13' E 139°43'0 0.0
2017-Dec-13 12:30N 35°13' E 139°43'0 0.0
2017-Dec-13 12:00N 35°13' E 139°43'0 0.0
2017-Dec-13 11:28N 35°13' E 139°43'0 0.0
2017-Dec-13 11:00N 35°13' E 139°43'0 0.0
2017-Dec-13 10:30N 35°13' E 139°43'0 0.0
2017-Dec-13 09:59N 35°13' E 139°43'0 0.0
2017-Dec-13 09:30N 35°13' E 139°43'0 0.0
2017-Dec-13 09:00N 35°13' E 139°43'0 0.0
2017-Dec-13 08:23N 35°13' E 139°43'0 0.0
2017-Dec-13 07:57N 35°13' E 139°43'0 0.0
2017-Dec-13 07:30N 35°13' E 139°43'0 0.0
2017-Dec-13 06:58N 35°13' E 139°43'0 0.0
2017-Dec-13 06:29N 35°13' E 139°43'0 0.0
2017-Dec-13 05:59N 35°13' E 139°43'0 0.0
2017-Dec-13 05:29N 35°13' E 139°43'0 0.0
2017-Dec-13 05:00N 35°13' E 139°43'0 0.0
2017-Dec-13 04:29N 35°13' E 139°43'0 0.0
2017-Dec-13 03:59N 35°13' E 139°43'0 0.0
2017-Dec-13 03:30N 35°13' E 139°43'0 0.0
2017-Dec-13 02:55N 35°13' E 139°43'0 0.0
2017-Dec-13 02:27N 35°13' E 139°43'2 3.8
2017-Dec-13 02:00N 35°14' E 139°45'5 9.5
2017-Dec-13 01:30N 35°18' E 139°43'2 3.1
2017-Dec-13 01:01N 35°20' E 139°42'0 0.2
2017-Dec-13 00:31N 35°20' E 139°42'0 0.1
2017-Dec-13 00:00N 35°20' E 139°42'0 0.0
2017-Dec-12 23:30N 35°20' E 139°42'0 0.1
2017-Dec-12 23:00N 35°20' E 139°41'0 0.1
2017-Dec-12 22:31N 35°20' E 139°41'0 0.2
2017-Dec-12 22:00N 35°20' E 139°41'0 0.1
2017-Dec-12 21:31N 35°20' E 139°41'0 0.1
2017-Dec-12 21:01N 35°20' E 139°41'0 0.1
2017-Dec-12 20:31N 35°19' E 139°41'0 0.1
2017-Dec-12 20:01N 35°20' E 139°41'0 0.1
2017-Dec-12 19:30N 35°20' E 139°41'0 0.2
2017-Dec-12 19:00N 35°19' E 139°41'0 0.0
2017-Dec-12 18:30N 35°19' E 139°41'0 0.2
2017-Dec-12 18:01N 35°20' E 139°41'2 4.7
2017-Dec-12 17:31N 35°17' E 139°41'1 1.0
2017-Dec-12 17:00N 35°17' E 139°41'0 0.0
2017-Dec-12 16:30N 35°17' E 139°41'0 0.0
2017-Dec-12 16:00N 35°17' E 139°41'0 0.0
2017-Dec-12 15:30N 35°17' E 139°41'0 0.0
2017-Dec-12 15:00N 35°17' E 139°41'0 0.0
2017-Dec-12 14:30N 35°17' E 139°41'3 6.5
2017-Dec-12 14:01N 35°16' E 139°44'3 6.9
2017-Dec-12 13:30N 35°13' E 139°47'612.6
2017-Dec-12 13:00N 35°19' E 139°43'510.6
2017-Dec-12 12:30N 35°24' E 139°40'1 1.9
2017-Dec-12 12:00N 35°24' E 139°39'0 0.7
2017-Dec-12 11:30N 35°24' E 139°39'0 0.2
2017-Dec-12 11:01N 35°24' E 139°39'1 2.5
2017-Dec-12 10:31N 35°23' E 139°40'0 0.1
2017-Dec-12 10:00N 35°23' E 139°40'0 0.0
2017-Dec-12 09:30N 35°23' E 139°40'0 0.0
2017-Dec-12 09:00N 35°23' E 139°40'0 0.0
2017-Dec-12 08:31N 35°23' E 139°40'0 0.0
2017-Dec-12 08:00N 35°23' E 139°40'0 0.0
2017-Dec-12 07:31N 35°23' E 139°40'0 0.0
2017-Dec-12 07:00N 35°23' E 139°40'0 0.0
2017-Dec-12 06:30N 35°23' E 139°40'0 0.0
2017-Dec-12 06:00N 35°23' E 139°40'0 0.9
2017-Dec-12 05:30N 35°23' E 139°40'612.1
2017-Dec-12 05:01N 35°26' E 139°47'612.3
2017-Dec-12 04:30N 35°30' E 139°53'3 4.5
2017-Dec-12 03:55N 35°28' E 139°51'512.7
2017-Dec-12 03:30N 35°24' E 139°46'612.1
2017-Dec-12 03:00N 35°18' E 139°45'612.7
2017-Dec-12 02:31N 35°12' E 139°47'1 2.1
2017-Dec-12 02:00N 35°11' E 139°47'4 8.2
2017-Dec-12 01:30N 35°13' E 139°43'0 0.3
2017-Dec-12 00:57N 35°13' E 139°43'0 0.0
2017-Dec-12 00:29N 35°13' E 139°43'0 0.0
2017-Dec-11 23:59N 35°13' E 139°43'0 0.0
2017-Dec-11 23:29N 35°13' E 139°43'0 0.0
2017-Dec-11 22:59N 35°13' E 139°43'0 0.0
2017-Dec-11 22:27N 35°13' E 139°43'0 0.0
2017-Dec-11 21:57N 35°13' E 139°43'0 0.0
2017-Dec-11 21:27N 35°13' E 139°43'0 0.0
2017-Dec-11 20:59N 35°13' E 139°43'0 0.0
2017-Dec-11 20:27N 35°13' E 139°43'0 0.0
2017-Dec-11 20:00N 35°13' E 139°43'0 0.0
2017-Dec-11 19:29N 35°13' E 139°43'0 0.0
2017-Dec-11 18:59N 35°13' E 139°43'0 0.0
2017-Dec-11 18:30N 35°13' E 139°43'0 0.0
2017-Dec-11 18:00N 35°13' E 139°43'0 0.0
2017-Dec-11 17:30N 35°13' E 139°43'0 0.0
2017-Dec-11 17:00N 35°13' E 139°43'0 0.0
2017-Dec-11 16:30N 35°13' E 139°43'0 0.0
2017-Dec-11 16:00N 35°13' E 139°43'0 0.0
2017-Dec-11 15:30N 35°13' E 139°43'0 0.0
2017-Dec-11 15:00N 35°13' E 139°43'0 0.0
2017-Dec-11 14:30N 35°13' E 139°43'0 0.0
2017-Dec-11 14:00N 35°13' E 139°43'0 0.0
2017-Dec-11 13:30N 35°13' E 139°43'0 0.0
2017-Dec-11 13:00N 35°13' E 139°43'0 0.0
2017-Dec-11 12:27N 35°13' E 139°43'0 0.0
2017-Dec-11 12:00N 35°13' E 139°43'0 0.0
2017-Dec-11 11:30N 35°13' E 139°43'0 0.0
2017-Dec-11 11:00N 35°13' E 139°43'0 0.0
2017-Dec-11 10:29N 35°13' E 139°43'0 0.0
2017-Dec-11 10:00N 35°13' E 139°43'0 0.0
2017-Dec-11 09:30N 35°13' E 139°43'0 0.0
2017-Dec-11 08:56N 35°13' E 139°43'0 0.0
2017-Dec-11 08:30N 35°13' E 139°43'0 0.0
2017-Dec-11 08:00N 35°13' E 139°43'0 0.0
2017-Dec-11 07:30N 35°13' E 139°43'0 0.0
2017-Dec-11 06:53N 35°13' E 139°43'0 0.0
2017-Dec-11 06:30N 35°13' E 139°43'0 0.0
2017-Dec-11 06:00N 35°13' E 139°43'2 4.4
2017-Dec-11 05:31N 35°15' E 139°45'612.2
2017-Dec-11 05:01N 35°20' E 139°42'510.2
2017-Dec-11 04:30N 35°16' E 139°46'611.2
2017-Dec-11 04:01N 35°11' E 139°47'1 1.9
2017-Dec-11 03:31N 35°12' E 139°47'3 5.5
2017-Dec-11 03:01N 35°13' E 139°44'2 3.8
2017-Dec-11 02:30N 35°12' E 139°46'510.5
2017-Dec-11 02:00N 35°17' E 139°45'611.5
2017-Dec-11 01:31N 35°23' E 139°42'2 4.3
2017-Dec-11 01:00N 35°24' E 139°44'0 0.4
2017-Dec-11 00:30N 35°24' E 139°44'3 5.7
2017-Dec-11 00:01N 35°24' E 139°48'2 4.6
2017-Dec-10 23:30N 35°25' E 139°50'0 0.3
2017-Dec-10 23:01N 35°25' E 139°50'4 8.9
2017-Dec-10 22:30N 35°23' E 139°46'510.5
2017-Dec-10 22:00N 35°18' E 139°45'510.9
2017-Dec-10 21:30N 35°13' E 139°47'2 4.6
2017-Dec-10 21:00N 35°10' E 139°46'4 7.7
2017-Dec-10 20:30N 35°13' E 139°43'0 0.2
2017-Dec-10 20:00N 35°13' E 139°43'0 0.0
2017-Dec-10 19:30N 35°13' E 139°43'0 0.0
2017-Dec-10 19:00N 35°13' E 139°43'0 0.0
2017-Dec-10 18:30N 35°13' E 139°43'0 0.0
2017-Dec-10 18:00N 35°13' E 139°43'0 0.0
2017-Dec-10 17:30N 35°13' E 139°43'0 0.0
2017-Dec-10 17:00N 35°13' E 139°43'0 0.0
2017-Dec-10 16:30N 35°13' E 139°43'0 0.0
2017-Dec-10 15:58N 35°13' E 139°43'0 0.0
2017-Dec-10 15:29N 35°13' E 139°43'0 0.0
2017-Dec-10 15:01N 35°13' E 139°43'0 0.0
2017-Dec-10 14:30N 35°13' E 139°43'0 0.0
2017-Dec-10 14:00N 35°13' E 139°43'0 0.0
2017-Dec-10 13:30N 35°13' E 139°43'0 0.0
2017-Dec-10 13:00N 35°13' E 139°43'0 0.0
2017-Dec-10 12:30N 35°13' E 139°43'0 0.0
2017-Dec-10 12:00N 35°13' E 139°43'0 0.0
2017-Dec-10 11:30N 35°13' E 139°43'0 0.0
2017-Dec-10 11:00N 35°13' E 139°43'0 0.0
2017-Dec-10 10:30N 35°13' E 139°43'0 0.0
2017-Dec-10 10:00N 35°13' E 139°43'0 0.0
2017-Dec-10 09:30N 35°13' E 139°43'0 0.0
2017-Dec-10 09:00N 35°13' E 139°43'0 0.0
2017-Dec-10 08:31N 35°13' E 139°43'0 0.0
2017-Dec-10 08:00N 35°13' E 139°43'0 0.0
2017-Dec-10 07:30N 35°13' E 139°43'0 0.0
2017-Dec-10 07:00N 35°13' E 139°43'0 0.0
2017-Dec-10 06:30N 35°13' E 139°43'1 2.3
2017-Dec-10 06:00N 35°13' E 139°44'611.9
2017-Dec-10 05:30N 35°19' E 139°42'612.3
2017-Dec-10 05:00N 35°25' E 139°43'3 5.7
2017-Dec-10 04:31N 35°27' E 139°46'3 5.6
2017-Dec-10 04:01N 35°24' E 139°46'611.1
2017-Dec-10 03:31N 35°19' E 139°44'611.4
2017-Dec-10 03:01N 35°14' E 139°47'4 7.2
2017-Dec-10 02:30N 35°10' E 139°47'5 9.2
2017-Dec-10 02:00N 35°15' E 139°45'5 9.3
2017-Dec-10 01:31N 35°17' E 139°41'0 0.2
2017-Dec-10 01:01N 35°17' E 139°41'4 7.0
2017-Dec-10 00:31N 35°20' E 139°42'4 7.9
2017-Dec-10 00:01N 35°23' E 139°46'4 8.0
2017-Dec-09 23:30N 35°19' E 139°44'611.3
2017-Dec-09 23:01N 35°14' E 139°47'4 8.1
2017-Dec-09 22:30N 35°10' E 139°47'3 5.9
2017-Dec-09 22:01N 35°12' E 139°45'2 4.0
2017-Dec-09 21:30N 35°13' E 139°43'0 0.0
2017-Dec-09 21:01N 35°13' E 139°43'0 0.0
2017-Dec-09 20:31N 35°13' E 139°43'0 0.0
2017-Dec-09 20:00N 35°13' E 139°43'0 0.0
2017-Dec-09 19:31N 35°13' E 139°43'0 0.0
2017-Dec-09 19:00N 35°13' E 139°43'0 0.0
2017-Dec-09 18:31N 35°13' E 139°43'0 0.0
2017-Dec-09 18:01N 35°13' E 139°43'0 0.0
2017-Dec-09 17:31N 35°13' E 139°43'0 0.0
2017-Dec-09 17:00N 35°13' E 139°43'0 0.0
2017-Dec-09 16:31N 35°13' E 139°43'0 0.0
2017-Dec-09 16:00N 35°13' E 139°43'0 0.0
2017-Dec-09 15:30N 35°13' E 139°43'0 0.0
2017-Dec-09 15:00N 35°13' E 139°43'0 0.0
2017-Dec-09 14:31N 35°13' E 139°43'0 0.0
2017-Dec-09 14:00N 35°13' E 139°43'0 0.0
2017-Dec-09 13:31N 35°13' E 139°43'0 0.0
2017-Dec-09 13:00N 35°13' E 139°43'0 0.0
2017-Dec-09 12:31N 35°13' E 139°43'0 0.0
2017-Dec-09 12:01N 35°13' E 139°43'0 0.0
2017-Dec-09 11:30N 35°13' E 139°43'0 0.0
2017-Dec-09 11:00N 35°13' E 139°43'0 0.0
2017-Dec-09 10:31N 35°13' E 139°43'0 0.0
2017-Dec-09 10:01N 35°13' E 139°43'0 0.0
2017-Dec-09 09:30N 35°13' E 139°43'0 0.0
2017-Dec-09 09:01N 35°13' E 139°43'0 0.0
2017-Dec-09 08:30N 35°13' E 139°43'0 0.0
2017-Dec-09 08:01N 35°13' E 139°43'0 0.0
2017-Dec-09 07:30N 35°13' E 139°43'0 0.0
2017-Dec-09 07:00N 35°13' E 139°43'0 0.0
2017-Dec-09 06:31N 35°13' E 139°43'0 0.0
2017-Dec-09 06:01N 35°13' E 139°43'0 0.0
2017-Dec-09 05:30N 35°13' E 139°43'0 0.0
2017-Dec-09 05:00N 35°13' E 139°43'0 0.0
2017-Dec-09 04:30N 35°13' E 139°43'0 0.0
2017-Dec-09 04:01N 35°13' E 139°43'2 3.8
2017-Dec-09 03:31N 35°13' E 139°45'3 5.7
2017-Dec-09 03:01N 35°15' E 139°46'612.8
2017-Dec-09 02:31N 35°21' E 139°42'612.4
2017-Dec-09 02:01N 35°26' E 139°46'713.5
2017-Dec-09 01:30N 35°30' E 139°53'2 3.4
2017-Dec-09 00:51N 35°31' E 139°56'0 0.2
2017-Dec-09 00:30N 35°31' E 139°56'4 7.0
2017-Dec-08 23:59N 35°28' E 139°52'4 8.9
2017-Dec-08 23:30N 35°27' E 139°47'510.4
2017-Dec-08 23:00N 35°22' E 139°45'611.1
2017-Dec-08 22:30N 35°17' E 139°46'611.3
2017-Dec-08 22:01N 35°11' E 139°47'0 0.5
2017-Dec-08 21:30N 35°11' E 139°47'4 7.5
2017-Dec-08 21:01N 35°13' E 139°43'0 0.3
2017-Dec-08 20:30N 35°13' E 139°43'0 0.0
2017-Dec-08 20:00N 35°13' E 139°43'0 0.0
2017-Dec-08 19:30N 35°13' E 139°43'0 0.0
2017-Dec-08 19:00N 35°13' E 139°43'0 0.0
2017-Dec-08 18:30N 35°13' E 139°43'0 0.0
2017-Dec-08 18:00N 35°13' E 139°43'0 0.0
2017-Dec-08 17:30N 35°13' E 139°43'0 0.0
2017-Dec-08 17:00N 35°13' E 139°43'0 0.0
2017-Dec-08 16:30N 35°13' E 139°43'0 0.0
2017-Dec-08 16:00N 35°13' E 139°43'0 0.0
2017-Dec-08 15:30N 35°13' E 139°43'0 0.0
2017-Dec-08 15:00N 35°13' E 139°43'0 0.0
2017-Dec-08 14:31N 35°13' E 139°43'0 0.0
2017-Dec-08 14:00N 35°13' E 139°43'0 0.0
2017-Dec-08 13:30N 35°13' E 139°43'0 0.0
2017-Dec-08 13:00N 35°13' E 139°43'0 0.0
2017-Dec-08 12:30N 35°13' E 139°43'0 0.0
2017-Dec-08 12:00N 35°13' E 139°43'0 0.0
2017-Dec-08 11:29N 35°13' E 139°43'0 0.0
2017-Dec-08 11:00N 35°13' E 139°43'0 0.0
2017-Dec-08 10:30N 35°13' E 139°43'0 0.0
2017-Dec-08 10:00N 35°13' E 139°43'0 0.0
2017-Dec-08 09:30N 35°13' E 139°43'0 0.0
2017-Dec-08 09:00N 35°13' E 139°43'0 0.0
2017-Dec-08 08:30N 35°13' E 139°43'0 0.0
2017-Dec-08 08:00N 35°13' E 139°43'0 0.0
2017-Dec-08 07:30N 35°13' E 139°43'0 0.0
2017-Dec-08 07:01N 35°13' E 139°43'0 0.3
2017-Dec-08 06:30N 35°13' E 139°43'3 5.5
2017-Dec-08 06:01N 35°14' E 139°46'612.1
2017-Dec-08 05:30N 35°19' E 139°43'612.1
2017-Dec-08 05:01N 35°25' E 139°44'5 9.6
2017-Dec-08 04:30N 35°22' E 139°49'1 2.3
2017-Dec-08 04:00N 35°21' E 139°49'0 0.4
2017-Dec-08 03:30N 35°21' E 139°49'1 1.2
2017-Dec-08 03:00N 35°21' E 139°49'0 0.0
2017-Dec-08 02:30N 35°21' E 139°49'0 0.0
2017-Dec-08 02:00N 35°21' E 139°49'0 0.0
2017-Dec-08 01:31N 35°21' E 139°49'0 0.0
2017-Dec-08 01:00N 35°21' E 139°49'5 9.4
2017-Dec-08 00:31N 35°25' E 139°46'2 4.7
2017-Dec-08 00:00N 35°23' E 139°46'510.5
2017-Dec-07 23:30N 35°18' E 139°45'510.6
2017-Dec-07 23:00N 35°12' E 139°47'2 4.9
2017-Dec-07 22:30N 35°10' E 139°47'5 9.2
2017-Dec-07 22:00N 35°13' E 139°43'0 0.2
2017-Dec-07 21:29N 35°13' E 139°43'0 0.0
2017-Dec-07 21:00N 35°13' E 139°43'0 0.0
2017-Dec-07 20:30N 35°13' E 139°43'0 0.0
2017-Dec-07 20:00N 35°13' E 139°43'0 0.0
2017-Dec-07 19:30N 35°13' E 139°43'0 0.0
2017-Dec-07 19:00N 35°13' E 139°43'0 0.0
2017-Dec-07 18:30N 35°13' E 139°43'0 0.0
2017-Dec-07 18:00N 35°13' E 139°43'0 0.0
2017-Dec-07 17:30N 35°13' E 139°43'0 0.0
2017-Dec-07 17:00N 35°13' E 139°43'0 0.0
2017-Dec-07 16:30N 35°13' E 139°43'0 0.0
2017-Dec-07 16:00N 35°13' E 139°43'0 0.0
2017-Dec-07 15:30N 35°13' E 139°43'0 0.0
2017-Dec-07 15:00N 35°13' E 139°43'0 0.0
2017-Dec-07 14:30N 35°13' E 139°43'0 0.0
2017-Dec-07 14:00N 35°13' E 139°43'0 0.0
2017-Dec-07 13:30N 35°13' E 139°43'0 0.0
2017-Dec-07 13:00N 35°13' E 139°43'0 0.0
2017-Dec-07 12:30N 35°13' E 139°43'0 0.0
2017-Dec-07 12:00N 35°13' E 139°43'0 0.0
2017-Dec-07 11:30N 35°13' E 139°43'0 0.0
2017-Dec-07 11:00N 35°13' E 139°43'0 0.0
2017-Dec-07 10:30N 35°13' E 139°43'0 0.0
2017-Dec-07 10:00N 35°13' E 139°43'0 0.0
2017-Dec-07 09:30N 35°13' E 139°43'0 0.0
2017-Dec-07 09:00N 35°13' E 139°43'0 0.0
2017-Dec-07 08:30N 35°13' E 139°43'0 0.0
2017-Dec-07 08:00N 35°13' E 139°43'0 0.0
2017-Dec-07 07:30N 35°13' E 139°43'0 0.0
2017-Dec-07 06:59N 35°13' E 139°43'0 0.0
2017-Dec-07 06:30N 35°13' E 139°43'0 0.0
2017-Dec-07 06:00N 35°13' E 139°43'0 0.0
2017-Dec-07 05:30N 35°13' E 139°43'0 0.0
2017-Dec-07 05:00N 35°13' E 139°43'0 0.0
2017-Dec-07 04:30N 35°13' E 139°43'0 0.0
2017-Dec-07 04:00N 35°13' E 139°43'3 5.8
2017-Dec-07 03:30N 35°13' E 139°46'612.5
2017-Dec-07 03:01N 35°19' E 139°43'612.9
2017-Dec-07 02:31N 35°25' E 139°43'2 4.9
2017-Dec-07 02:01N 35°28' E 139°44'0 0.5
2017-Dec-07 01:31N 35°28' E 139°45'611.1
2017-Dec-07 00:59N 35°30' E 139°51'1 1.9
2017-Dec-07 00:24N 35°29' E 139°52'4 9.9
2017-Dec-07 00:00N 35°26' E 139°49'611.1
2017-Dec-06 23:31N 35°21' E 139°45'510.5
2017-Dec-06 23:00N 35°16' E 139°46'611.8
2017-Dec-06 22:31N 35°10' E 139°47'3 6.6
2017-Dec-06 22:00N 35°13' E 139°44'1 2.3
2017-Dec-06 21:30N 35°13' E 139°43'0 0.0
2017-Dec-06 21:00N 35°13' E 139°43'  
Track history (hours):
 
Tides and Currents Weather Stations Pressure Air Temp Water Temp Dewpoint Dewpoint Depression Visibility Wind Speed Wind Dir Waves Ship Positions

Noshiro Maru

Last reported at 2017-Dec-16 15:00 UTC. Time now 2017-Dec-16 15:03 UTC.
Position N 35°17' E 139°41'.

Length 38 m; draft 3 m.

Type: Tug. MMSI: 431009622.

Date/timePositionNaut miles runAvg speedWind from/ knotsBaromVisibWave heightAir tempDewpointWater temp
2017-Dec-16 15:00N 35°17' E 139°41'0 0.0
2017-Dec-16 14:30N 35°17' E 139°41'0 0.0
2017-Dec-16 14:00N 35°17' E 139°41'1 3.0
2017-Dec-16 13:31N 35°18' E 139°42'2 3.1
2017-Dec-16 13:01N 35°17' E 139°41'0 0.0
2017-Dec-16 12:31N 35°17' E 139°41'0 0.0
2017-Dec-16 12:00N 35°17' E 139°41'0 0.0
2017-Dec-16 11:30N 35°17' E 139°41'0 0.0
2017-Dec-16 11:00N 35°17' E 139°41'0 0.0
2017-Dec-16 10:30N 35°17' E 139°41'0 0.0
2017-Dec-16 10:00N 35°17' E 139°41'0 0.0
2017-Dec-16 09:31N 35°17' E 139°41'2 3.4
2017-Dec-16 09:00N 35°18' E 139°42'510.4
2017-Dec-16 08:31N 35°23' E 139°39'0 0.0
2017-Dec-16 08:01N 35°23' E 139°39'0 0.0
2017-Dec-16 07:31N 35°23' E 139°39'0 0.0
2017-Dec-16 07:00N 35°23' E 139°39'0 0.0
2017-Dec-16 06:31N 35°23' E 139°39'1 2.2
2017-Dec-16 06:00N 35°24' E 139°39'3 5.3
2017-Dec-16 05:31N 35°23' E 139°42'0 0.3
2017-Dec-16 05:00N 35°23' E 139°42'2 4.2
2017-Dec-16 04:30N 35°21' E 139°43'3 6.3
2017-Dec-16 04:00N 35°19' E 139°44'3 5.7
2017-Dec-16 03:30N 35°16' E 139°46'3 6.4
2017-Dec-16 03:00N 35°13' E 139°47'2 4.5
2017-Dec-16 02:30N 35°11' E 139°47'1 1.5
2017-Dec-16 02:01N 35°10' E 139°47'4 8.4
2017-Dec-16 01:31N 35°13' E 139°43'0 1.0
2017-Dec-16 01:00N 35°13' E 139°43'0 0.0
2017-Dec-16 00:31N 35°13' E 139°43'0 0.0
2017-Dec-16 00:01N 35°13' E 139°43'0 0.0
2017-Dec-15 23:31N 35°13' E 139°43'0 0.0
2017-Dec-15 23:00N 35°13' E 139°43'0 0.0
2017-Dec-15 22:30N 35°13' E 139°43'0 0.0
2017-Dec-15 22:00N 35°13' E 139°43'0 0.0
2017-Dec-15 21:30N 35°13' E 139°43'0 0.0
2017-Dec-15 21:00N 35°13' E 139°43'0 0.0
2017-Dec-15 20:30N 35°13' E 139°43'0 0.0
2017-Dec-15 20:01N 35°13' E 139°43'0 0.0
2017-Dec-15 19:31N 35°13' E 139°43'0 0.0
2017-Dec-15 19:01N 35°13' E 139°43'0 0.0
2017-Dec-15 18:30N 35°13' E 139°43'0 0.0
2017-Dec-15 18:00N 35°13' E 139°43'0 0.0
2017-Dec-15 17:30N 35°13' E 139°43'0 0.0
2017-Dec-15 17:01N 35°13' E 139°43'0 0.0
2017-Dec-15 16:31N 35°13' E 139°43'0 0.0
2017-Dec-15 16:00N 35°13' E 139°43'0 0.0
2017-Dec-15 15:31N 35°13' E 139°43'0 0.0
2017-Dec-15 15:01N 35°13' E 139°43'0 0.0
2017-Dec-15 14:30N 35°13' E 139°43'0 0.0
2017-Dec-15 14:01N 35°13' E 139°43'0 0.0
2017-Dec-15 13:31N 35°13' E 139°43'0 0.0
2017-Dec-15 13:01N 35°13' E 139°43'0 0.0
2017-Dec-15 12:30N 35°13' E 139°43'0 0.0
2017-Dec-15 12:01N 35°13' E 139°43'0 0.0
2017-Dec-15 11:29N 35°13' E 139°43'0 0.0
2017-Dec-15 11:01N 35°13' E 139°43'0 0.0
2017-Dec-15 10:30N 35°13' E 139°43'0 0.0
2017-Dec-15 10:00N 35°13' E 139°43'0 0.0
2017-Dec-15 09:30N 35°13' E 139°43'0 0.0
2017-Dec-15 09:00N 35°13' E 139°43'0 0.0
2017-Dec-15 08:29N 35°13' E 139°43'0 0.0
2017-Dec-15 08:00N 35°13' E 139°43'0 0.0
2017-Dec-15 07:30N 35°13' E 139°43'0 0.0
2017-Dec-15 07:00N 35°13' E 139°43'0 0.0
2017-Dec-15 06:30N 35°13' E 139°43'0 0.0
2017-Dec-15 06:00N 35°13' E 139°43'0 0.0
2017-Dec-15 05:30N 35°13' E 139°43'0 0.0
2017-Dec-15 05:00N 35°13' E 139°43'0 0.0
2017-Dec-15 04:30N 35°13' E 139°43'0 0.0
2017-Dec-15 03:38N 35°13' E 139°43'0 0.1
2017-Dec-15 02:30N 35°13' E 139°43'11 7.1
2017-Dec-15 01:00N 35°24' E 139°43'4 7.7
2017-Dec-15 00:31N 35°28' E 139°44'7 1.2
2017-Dec-14 18:30N 35°21' E 139°42'612.6
2017-Dec-14 18:00N 35°15' E 139°45'3 5.8
2017-Dec-14 17:30N 35°13' E 139°43'0 0.0
2017-Dec-14 17:00N 35°13' E 139°43'0 0.0
2017-Dec-14 16:30N 35°13' E 139°43'0 0.0
2017-Dec-14 16:00N 35°13' E 139°43'0 0.0
2017-Dec-14 15:00N 35°13' E 139°43'0 0.0
2017-Dec-14 14:30N 35°13' E 139°43'0 0.0
2017-Dec-14 14:00N 35°13' E 139°43'0 0.0
2017-Dec-14 13:30N 35°13' E 139°43'0 0.5
2017-Dec-14 13:00N 35°13' E 139°43'3 5.4
2017-Dec-14 12:30N 35°14' E 139°46'612.5
2017-Dec-14 12:01N 35°20' E 139°43'4 8.7
2017-Dec-14 11:31N 35°24' E 139°44'0 0.7
2017-Dec-14 11:00N 35°24' E 139°44'1 2.6
2017-Dec-14 10:30N 35°23' E 139°46'611.5
2017-Dec-14 10:01N 35°18' E 139°45'611.8
2017-Dec-14 09:30N 35°12' E 139°47'1 2.0
2017-Dec-14 09:00N 35°11' E 139°47'4 7.4
2017-Dec-14 08:30N 35°13' E 139°43'0 0.0
2017-Dec-14 08:00N 35°13' E 139°43'0 0.0
2017-Dec-14 07:31N 35°13' E 139°43'0 0.0
2017-Dec-14 07:00N 35°13' E 139°43'0 0.0
2017-Dec-14 06:30N 35°13' E 139°43'3 5.5
2017-Dec-14 06:00N 35°13' E 139°46'612.3
2017-Dec-14 05:30N 35°19' E 139°44'612.4
2017-Dec-14 05:01N 35°25' E 139°44'5 9.2
2017-Dec-14 04:30N 35°22' E 139°48'1 2.0
2017-Dec-14 04:00N 35°21' E 139°49'0 0.7
2017-Dec-14 03:30N 35°21' E 139°49'4 7.5
2017-Dec-14 03:00N 35°25' E 139°51'510.1
2017-Dec-14 02:30N 35°29' E 139°54'3 6.0
2017-Dec-14 01:57N 35°27' E 139°50'511.5
2017-Dec-14 01:30N 35°24' E 139°46'611.7
2017-Dec-14 01:00N 35°18' E 139°45'611.8
2017-Dec-14 00:30N 35°12' E 139°47'2 4.4
2017-Dec-14 00:00N 35°10' E 139°47'5 9.3
2017-Dec-13 23:30N 35°13' E 139°43'0 0.3
2017-Dec-13 22:59N 35°13' E 139°43'0 0.0
2017-Dec-13 22:30N 35°13' E 139°43'0 0.0
2017-Dec-13 21:57N 35°13' E 139°43'0 0.0
2017-Dec-13 21:30N 35°13' E 139°43'0 0.0
2017-Dec-13 20:59N 35°13' E 139°43'0 0.0
2017-Dec-13 20:30N 35°13' E 139°43'0 0.0
2017-Dec-13 20:00N 35°13' E 139°43'0 0.0
2017-Dec-13 19:30N 35°13' E 139°43'0 0.0
2017-Dec-13 19:00N 35°13' E 139°43'0 0.0
2017-Dec-13 18:29N 35°13' E 139°43'0 0.0
2017-Dec-13 18:00N 35°13' E 139°43'0 0.0
2017-Dec-13 17:30N 35°13' E 139°43'0 0.0
2017-Dec-13 17:00N 35°13' E 139°43'0 0.0
2017-Dec-13 16:30N 35°13' E 139°43'0 0.0
2017-Dec-13 16:00N 35°13' E 139°43'0 0.0
2017-Dec-13 15:30N 35°13' E 139°43'0 0.0
2017-Dec-13 15:00N 35°13' E 139°43'0 0.0
2017-Dec-13 14:30N 35°13' E 139°43'0 0.0
2017-Dec-13 14:00N 35°13' E 139°43'0 0.0
2017-Dec-13 13:30N 35°13' E 139°43'0 0.0
2017-Dec-13 12:57N 35°13' E 139°43'0 0.0
2017-Dec-13 12:30N 35°13' E 139°43'0 0.0
2017-Dec-13 12:00N 35°13' E 139°43'0 0.0
2017-Dec-13 11:28N 35°13' E 139°43'0 0.0
2017-Dec-13 11:00N 35°13' E 139°43'0 0.0
2017-Dec-13 10:30N 35°13' E 139°43'0 0.0
2017-Dec-13 09:59N 35°13' E 139°43'0 0.0
2017-Dec-13 09:30N 35°13' E 139°43'0 0.0
2017-Dec-13 09:00N 35°13' E 139°43'0 0.0
2017-Dec-13 08:23N 35°13' E 139°43'0 0.0
2017-Dec-13 07:57N 35°13' E 139°43'0 0.0
2017-Dec-13 07:30N 35°13' E 139°43'0 0.0
2017-Dec-13 06:58N 35°13' E 139°43'0 0.0
2017-Dec-13 06:29N 35°13' E 139°43'0 0.0
2017-Dec-13 05:59N 35°13' E 139°43'0 0.0
2017-Dec-13 05:29N 35°13' E 139°43'0 0.0
2017-Dec-13 05:00N 35°13' E 139°43'0 0.0
2017-Dec-13 04:29N 35°13' E 139°43'0 0.0
2017-Dec-13 03:59N 35°13' E 139°43'0 0.0
2017-Dec-13 03:30N 35°13' E 139°43'0 0.0
2017-Dec-13 02:55N 35°13' E 139°43'0 0.0
2017-Dec-13 02:27N 35°13' E 139°43'2 3.8
2017-Dec-13 02:00N 35°14' E 139°45'5 9.5
2017-Dec-13 01:30N 35°18' E 139°43'2 3.1
2017-Dec-13 01:01N 35°20' E 139°42'0 0.2
2017-Dec-13 00:31N 35°20' E 139°42'0 0.1
2017-Dec-13 00:00N 35°20' E 139°42'0 0.0
2017-Dec-12 23:30N 35°20' E 139°42'0 0.1
2017-Dec-12 23:00N 35°20' E 139°41'0 0.1
2017-Dec-12 22:31N 35°20' E 139°41'0 0.2
2017-Dec-12 22:00N 35°20' E 139°41'0 0.1
2017-Dec-12 21:31N 35°20' E 139°41'0 0.1
2017-Dec-12 21:01N 35°20' E 139°41'0 0.1
2017-Dec-12 20:31N 35°19' E 139°41'0 0.1
2017-Dec-12 20:01N 35°20' E 139°41'0 0.1
2017-Dec-12 19:30N 35°20' E 139°41'0 0.2
2017-Dec-12 19:00N 35°19' E 139°41'0 0.0
2017-Dec-12 18:30N 35°19' E 139°41'0 0.2
2017-Dec-12 18:01N 35°20' E 139°41'2 4.7
2017-Dec-12 17:31N 35°17' E 139°41'1 1.0
2017-Dec-12 17:00N 35°17' E 139°41'0 0.0
2017-Dec-12 16:30N 35°17' E 139°41'0 0.0
2017-Dec-12 16:00N 35°17' E 139°41'0 0.0
2017-Dec-12 15:30N 35°17' E 139°41'0 0.0
2017-Dec-12 15:00N 35°17' E 139°41'0 0.0
2017-Dec-12 14:30N 35°17' E 139°41'3 6.5
2017-Dec-12 14:01N 35°16' E 139°44'3 6.9
2017-Dec-12 13:30N 35°13' E 139°47'612.6
2017-Dec-12 13:00N 35°19' E 139°43'510.6
2017-Dec-12 12:30N 35°24' E 139°40'1 1.9
2017-Dec-12 12:00N 35°24' E 139°39'0 0.7
2017-Dec-12 11:30N 35°24' E 139°39'0 0.2
2017-Dec-12 11:01N 35°24' E 139°39'1 2.5
2017-Dec-12 10:31N 35°23' E 139°40'0 0.1
2017-Dec-12 10:00N 35°23' E 139°40'0 0.0
2017-Dec-12 09:30N 35°23' E 139°40'0 0.0
2017-Dec-12 09:00N 35°23' E 139°40'0 0.0
2017-Dec-12 08:31N 35°23' E 139°40'0 0.0
2017-Dec-12 08:00N 35°23' E 139°40'0 0.0
2017-Dec-12 07:31N 35°23' E 139°40'0 0.0
2017-Dec-12 07:00N 35°23' E 139°40'0 0.0
2017-Dec-12 06:30N 35°23' E 139°40'0 0.0
2017-Dec-12 06:00N 35°23' E 139°40'0 0.9
2017-Dec-12 05:30N 35°23' E 139°40'612.1
2017-Dec-12 05:01N 35°26' E 139°47'612.3
2017-Dec-12 04:30N 35°30' E 139°53'3 4.5
2017-Dec-12 03:55N 35°28' E 139°51'512.7
2017-Dec-12 03:30N 35°24' E 139°46'612.1
2017-Dec-12 03:00N 35°18' E 139°45'612.7
2017-Dec-12 02:31N 35°12' E 139°47'1 2.1
2017-Dec-12 02:00N 35°11' E 139°47'4 8.2
2017-Dec-12 01:30N 35°13' E 139°43'0 0.3
2017-Dec-12 00:57N 35°13' E 139°43'0 0.0
2017-Dec-12 00:29N 35°13' E 139°43'0 0.0
2017-Dec-11 23:59N 35°13' E 139°43'0 0.0
2017-Dec-11 23:29N 35°13' E 139°43'0 0.0
2017-Dec-11 22:59N 35°13' E 139°43'0 0.0
2017-Dec-11 22:27N 35°13' E 139°43'0 0.0
2017-Dec-11 21:57N 35°13' E 139°43'0 0.0
2017-Dec-11 21:27N 35°13' E 139°43'0 0.0
2017-Dec-11 20:59N 35°13' E 139°43'0 0.0
2017-Dec-11 20:27N 35°13' E 139°43'0 0.0
2017-Dec-11 20:00N 35°13' E 139°43'0 0.0
2017-Dec-11 19:29N 35°13' E 139°43'0 0.0
2017-Dec-11 18:59N 35°13' E 139°43'0 0.0
2017-Dec-11 18:30N 35°13' E 139°43'0 0.0
2017-Dec-11 18:00N 35°13' E 139°43'0 0.0
2017-Dec-11 17:30N 35°13' E 139°43'0 0.0
2017-Dec-11 17:00N 35°13' E 139°43'0 0.0
2017-Dec-11 16:30N 35°13' E 139°43'0 0.0
2017-Dec-11 16:00N 35°13' E 139°43'0 0.0
2017-Dec-11 15:30N 35°13' E 139°43'0 0.0
2017-Dec-11 15:00N 35°13' E 139°43'0 0.0
2017-Dec-11 14:30N 35°13' E 139°43'0 0.0
2017-Dec-11 14:00N 35°13' E 139°43'0 0.0
2017-Dec-11 13:30N 35°13' E 139°43'0 0.0
2017-Dec-11 13:00N 35°13' E 139°43'0 0.0
2017-Dec-11 12:27N 35°13' E 139°43'0 0.0
2017-Dec-11 12:00N 35°13' E 139°43'0 0.0
2017-Dec-11 11:30N 35°13' E 139°43'0 0.0
2017-Dec-11 11:00N 35°13' E 139°43'0 0.0
2017-Dec-11 10:29N 35°13' E 139°43'0 0.0
2017-Dec-11 10:00N 35°13' E 139°43'0 0.0
2017-Dec-11 09:30N 35°13' E 139°43'0 0.0
2017-Dec-11 08:56N 35°13' E 139°43'0 0.0
2017-Dec-11 08:30N 35°13' E 139°43'0 0.0
2017-Dec-11 08:00N 35°13' E 139°43'0 0.0
2017-Dec-11 07:30N 35°13' E 139°43'0 0.0
2017-Dec-11 06:53N 35°13' E 139°43'0 0.0
2017-Dec-11 06:30N 35°13' E 139°43'0 0.0
2017-Dec-11 06:00N 35°13' E 139°43'2 4.4
2017-Dec-11 05:31N 35°15' E 139°45'612.2
2017-Dec-11 05:01N 35°20' E 139°42'510.2
2017-Dec-11 04:30N 35°16' E 139°46'611.2
2017-Dec-11 04:01N 35°11' E 139°47'1 1.9
2017-Dec-11 03:31N 35°12' E 139°47'3 5.5
2017-Dec-11 03:01N 35°13' E 139°44'2 3.8
2017-Dec-11 02:30N 35°12' E 139°46'510.5
2017-Dec-11 02:00N 35°17' E 139°45'611.5
2017-Dec-11 01:31N 35°23' E 139°42'2 4.3
2017-Dec-11 01:00N 35°24' E 139°44'0 0.4
2017-Dec-11 00:30N 35°24' E 139°44'3 5.7
2017-Dec-11 00:01N 35°24' E 139°48'2 4.6
2017-Dec-10 23:30N 35°25' E 139°50'0 0.3
2017-Dec-10 23:01N 35°25' E 139°50'4 8.9
2017-Dec-10 22:30N 35°23' E 139°46'510.5
2017-Dec-10 22:00N 35°18' E 139°45'510.9
2017-Dec-10 21:30N 35°13' E 139°47'2 4.6
2017-Dec-10 21:00N 35°10' E 139°46'4 7.7
2017-Dec-10 20:30N 35°13' E 139°43'0 0.2
2017-Dec-10 20:00N 35°13' E 139°43'0 0.0
2017-Dec-10 19:30N 35°13' E 139°43'0 0.0
2017-Dec-10 19:00N 35°13' E 139°43'0 0.0
2017-Dec-10 18:30N 35°13' E 139°43'0 0.0
2017-Dec-10 18:00N 35°13' E 139°43'0 0.0
2017-Dec-10 17:30N 35°13' E 139°43'0 0.0
2017-Dec-10 17:00N 35°13' E 139°43'0 0.0
2017-Dec-10 16:30N 35°13' E 139°43'0 0.0
2017-Dec-10 15:58N 35°13' E 139°43'0 0.0
2017-Dec-10 15:29N 35°13' E 139°43'0 0.0
2017-Dec-10 15:01N 35°13' E 139°43'0 0.0
2017-Dec-10 14:30N 35°13' E 139°43'0 0.0
2017-Dec-10 14:00N 35°13' E 139°43'0 0.0
2017-Dec-10 13:30N 35°13' E 139°43'0 0.0
2017-Dec-10 13:00N 35°13' E 139°43'0 0.0
2017-Dec-10 12:30N 35°13' E 139°43'0 0.0
2017-Dec-10 12:00N 35°13' E 139°43'0 0.0
2017-Dec-10 11:30N 35°13' E 139°43'0 0.0
2017-Dec-10 11:00N 35°13' E 139°43'0 0.0
2017-Dec-10 10:30N 35°13' E 139°43'0 0.0
2017-Dec-10 10:00N 35°13' E 139°43'0 0.0
2017-Dec-10 09:30N 35°13' E 139°43'0 0.0
2017-Dec-10 09:00N 35°13' E 139°43'0 0.0
2017-Dec-10 08:31N 35°13' E 139°43'0 0.0
2017-Dec-10 08:00N 35°13' E 139°43'0 0.0
2017-Dec-10 07:30N 35°13' E 139°43'0 0.0
2017-Dec-10 07:00N 35°13' E 139°43'0 0.0
2017-Dec-10 06:30N 35°13' E 139°43'1 2.3
2017-Dec-10 06:00N 35°13' E 139°44'611.9
2017-Dec-10 05:30N 35°19' E 139°42'612.3
2017-Dec-10 05:00N 35°25' E 139°43'3 5.7
2017-Dec-10 04:31N 35°27' E 139°46'3 5.6
2017-Dec-10 04:01N 35°24' E 139°46'611.1
2017-Dec-10 03:31N 35°19' E 139°44'611.4
2017-Dec-10 03:01N 35°14' E 139°47'4 7.2
2017-Dec-10 02:30N 35°10' E 139°47'5 9.2
2017-Dec-10 02:00N 35°15' E 139°45'5 9.3
2017-Dec-10 01:31N 35°17' E 139°41'0 0.2
2017-Dec-10 01:01N 35°17' E 139°41'4 7.0
2017-Dec-10 00:31N 35°20' E 139°42'4 7.9
2017-Dec-10 00:01N 35°23' E 139°46'4 8.0
2017-Dec-09 23:30N 35°19' E 139°44'611.3
2017-Dec-09 23:01N 35°14' E 139°47'4 8.1
2017-Dec-09 22:30N 35°10' E 139°47'3 5.9
2017-Dec-09 22:01N 35°12' E 139°45'2 4.0
2017-Dec-09 21:30N 35°13' E 139°43'0 0.0
2017-Dec-09 21:01N 35°13' E 139°43'0 0.0
2017-Dec-09 20:31N 35°13' E 139°43'0 0.0
2017-Dec-09 20:00N 35°13' E 139°43'0 0.0
2017-Dec-09 19:31N 35°13' E 139°43'0 0.0
2017-Dec-09 19:00N 35°13' E 139°43'0 0.0
2017-Dec-09 18:31N 35°13' E 139°43'0 0.0
2017-Dec-09 18:01N 35°13' E 139°43'0 0.0
2017-Dec-09 17:31N 35°13' E 139°43'0 0.0
2017-Dec-09 17:00N 35°13' E 139°43'0 0.0
2017-Dec-09 16:31N 35°13' E 139°43'0 0.0
2017-Dec-09 16:00N 35°13' E 139°43'0 0.0
2017-Dec-09 15:30N 35°13' E 139°43'0 0.0
2017-Dec-09 15:00N 35°13' E 139°43'0 0.0
2017-Dec-09 14:31N 35°13' E 139°43'0 0.0
2017-Dec-09 14:00N 35°13' E 139°43'0 0.0
2017-Dec-09 13:31N 35°13' E 139°43'0 0.0
2017-Dec-09 13:00N 35°13' E 139°43'0 0.0
2017-Dec-09 12:31N 35°13' E 139°43'0 0.0
2017-Dec-09 12:01N 35°13' E 139°43'0 0.0
2017-Dec-09 11:30N 35°13' E 139°43'0 0.0
2017-Dec-09 11:00N 35°13' E 139°43'0 0.0
2017-Dec-09 10:31N 35°13' E 139°43'0 0.0
2017-Dec-09 10:01N 35°13' E 139°43'0 0.0
2017-Dec-09 09:30N 35°13' E 139°43'0 0.0
2017-Dec-09 09:01N 35°13' E 139°43'0 0.0
2017-Dec-09 08:30N 35°13' E 139°43'0 0.0
2017-Dec-09 08:01N 35°13' E 139°43'0 0.0
2017-Dec-09 07:30N 35°13' E 139°43'0 0.0
2017-Dec-09 07:00N 35°13' E 139°43'0 0.0
2017-Dec-09 06:31N 35°13' E 139°43'0 0.0
2017-Dec-09 06:01N 35°13' E 139°43'0 0.0
2017-Dec-09 05:30N 35°13' E 139°43'0 0.0
2017-Dec-09 05:00N 35°13' E 139°43'0 0.0
2017-Dec-09 04:30N 35°13' E 139°43'0 0.0
2017-Dec-09 04:01N 35°13' E 139°43'2 3.8
2017-Dec-09 03:31N 35°13' E 139°45'3 5.7
2017-Dec-09 03:01N 35°15' E 139°46'612.8
2017-Dec-09 02:31N 35°21' E 139°42'612.4
2017-Dec-09 02:01N 35°26' E 139°46'713.5
2017-Dec-09 01:30N 35°30' E 139°53'2 3.4
2017-Dec-09 00:51N 35°31' E 139°56'0 0.2
2017-Dec-09 00:30N 35°31' E 139°56'4 7.0
2017-Dec-08 23:59N 35°28' E 139°52'4 8.9
2017-Dec-08 23:30N 35°27' E 139°47'510.4
2017-Dec-08 23:00N 35°22' E 139°45'611.1
2017-Dec-08 22:30N 35°17' E 139°46'611.3
2017-Dec-08 22:01N 35°11' E 139°47'0 0.5
2017-Dec-08 21:30N 35°11' E 139°47'4 7.5
2017-Dec-08 21:01N 35°13' E 139°43'0 0.3
2017-Dec-08 20:30N 35°13' E 139°43'0 0.0
2017-Dec-08 20:00N 35°13' E 139°43'0 0.0
2017-Dec-08 19:30N 35°13' E 139°43'0 0.0
2017-Dec-08 19:00N 35°13' E 139°43'0 0.0
2017-Dec-08 18:30N 35°13' E 139°43'0 0.0
2017-Dec-08 18:00N 35°13' E 139°43'0 0.0
2017-Dec-08 17:30N 35°13' E 139°43'0 0.0
2017-Dec-08 17:00N 35°13' E 139°43'0 0.0
2017-Dec-08 16:30N 35°13' E 139°43'0 0.0
2017-Dec-08 16:00N 35°13' E 139°43'0 0.0
2017-Dec-08 15:30N 35°13' E 139°43'0 0.0
2017-Dec-08 15:00N 35°13' E 139°43'0 0.0
2017-Dec-08 14:31N 35°13' E 139°43'0 0.0
2017-Dec-08 14:00N 35°13' E 139°43'0 0.0
2017-Dec-08 13:30N 35°13' E 139°43'0 0.0
2017-Dec-08 13:00N 35°13' E 139°43'0 0.0
2017-Dec-08 12:30N 35°13' E 139°43'0 0.0
2017-Dec-08 12:00N 35°13' E 139°43'0 0.0
2017-Dec-08 11:29N 35°13' E 139°43'0 0.0
2017-Dec-08 11:00N 35°13' E 139°43'0 0.0
2017-Dec-08 10:30N 35°13' E 139°43'0 0.0
2017-Dec-08 10:00N 35°13' E 139°43'0 0.0
2017-Dec-08 09:30N 35°13' E 139°43'0 0.0
2017-Dec-08 09:00N 35°13' E 139°43'0 0.0
2017-Dec-08 08:30N 35°13' E 139°43'0 0.0
2017-Dec-08 08:00N 35°13' E 139°43'0 0.0
2017-Dec-08 07:30N 35°13' E 139°43'0 0.0
2017-Dec-08 07:01N 35°13' E 139°43'0 0.3
2017-Dec-08 06:30N 35°13' E 139°43'3 5.5
2017-Dec-08 06:01N 35°14' E 139°46'612.1
2017-Dec-08 05:30N 35°19' E 139°43'612.1
2017-Dec-08 05:01N 35°25' E 139°44'5 9.6
2017-Dec-08 04:30N 35°22' E 139°49'1 2.3
2017-Dec-08 04:00N 35°21' E 139°49'0 0.4
2017-Dec-08 03:30N 35°21' E 139°49'1 1.2
2017-Dec-08 03:00N 35°21' E 139°49'0 0.0
2017-Dec-08 02:30N 35°21' E 139°49'0 0.0
2017-Dec-08 02:00N 35°21' E 139°49'0 0.0
2017-Dec-08 01:31N 35°21' E 139°49'0 0.0
2017-Dec-08 01:00N 35°21' E 139°49'5 9.4
2017-Dec-08 00:31N 35°25' E 139°46'2 4.7
2017-Dec-08 00:00N 35°23' E 139°46'510.5
2017-Dec-07 23:30N 35°18' E 139°45'510.6
2017-Dec-07 23:00N 35°12' E 139°47'2 4.9
2017-Dec-07 22:30N 35°10' E 139°47'5 9.2
2017-Dec-07 22:00N 35°13' E 139°43'0 0.2
2017-Dec-07 21:29N 35°13' E 139°43'0 0.0
2017-Dec-07 21:00N 35°13' E 139°43'0 0.0
2017-Dec-07 20:30N 35°13' E 139°43'0 0.0
2017-Dec-07 20:00N 35°13' E 139°43'0 0.0
2017-Dec-07 19:30N 35°13' E 139°43'0 0.0
2017-Dec-07 19:00N 35°13' E 139°43'0 0.0
2017-Dec-07 18:30N 35°13' E 139°43'0 0.0
2017-Dec-07 18:00N 35°13' E 139°43'0 0.0
2017-Dec-07 17:30N 35°13' E 139°43'0 0.0
2017-Dec-07 17:00N 35°13' E 139°43'0 0.0
2017-Dec-07 16:30N 35°13' E 139°43'0 0.0
2017-Dec-07 16:00N 35°13' E 139°43'0 0.0
2017-Dec-07 15:30N 35°13' E 139°43'0 0.0
2017-Dec-07 15:00N 35°13' E 139°43'0 0.0
2017-Dec-07 14:30N 35°13' E 139°43'0 0.0
2017-Dec-07 14:00N 35°13' E 139°43'0 0.0
2017-Dec-07 13:30N 35°13' E 139°43'0 0.0
2017-Dec-07 13:00N 35°13' E 139°43'0 0.0
2017-Dec-07 12:30N 35°13' E 139°43'0 0.0
2017-Dec-07 12:00N 35°13' E 139°43'0 0.0
2017-Dec-07 11:30N 35°13' E 139°43'0 0.0
2017-Dec-07 11:00N 35°13' E 139°43'0 0.0
2017-Dec-07 10:30N 35°13' E 139°43'0 0.0
2017-Dec-07 10:00N 35°13' E 139°43'0 0.0
2017-Dec-07 09:30N 35°13' E 139°43'0 0.0
2017-Dec-07 09:00N 35°13' E 139°43'0 0.0
2017-Dec-07 08:30N 35°13' E 139°43'0 0.0
2017-Dec-07 08:00N 35°13' E 139°43'0 0.0
2017-Dec-07 07:30N 35°13' E 139°43'0 0.0
2017-Dec-07 06:59N 35°13' E 139°43'0 0.0
2017-Dec-07 06:30N 35°13' E 139°43'0 0.0
2017-Dec-07 06:00N 35°13' E 139°43'0 0.0
2017-Dec-07 05:30N 35°13' E 139°43'0 0.0
2017-Dec-07 05:00N 35°13' E 139°43'0 0.0
2017-Dec-07 04:30N 35°13' E 139°43'0 0.0
2017-Dec-07 04:00N 35°13' E 139°43'3 5.8
2017-Dec-07 03:30N 35°13' E 139°46'612.5
2017-Dec-07 03:01N 35°19' E 139°43'612.9
2017-Dec-07 02:31N 35°25' E 139°43'2 4.9
2017-Dec-07 02:01N 35°28' E 139°44'0 0.5
2017-Dec-07 01:31N 35°28' E 139°45'611.1
2017-Dec-07 00:59N 35°30' E 139°51'1 1.9
2017-Dec-07 00:24N 35°29' E 139°52'4 9.9
2017-Dec-07 00:00N 35°26' E 139°49'611.1
2017-Dec-06 23:31N 35°21' E 139°45'510.5
2017-Dec-06 23:00N 35°16' E 139°46'611.8
2017-Dec-06 22:31N 35°10' E 139°47'3 6.6
2017-Dec-06 22:00N 35°13' E 139°44'1 2.3
2017-Dec-06 21:30N 35°13' E 139°43'0 0.0
2017-Dec-06 21:00N 35°13' E 139°43'  

Dump ship's entire track history